Time;durP1;ratioP1;P1;durP2;ratioP2;P2;SDS_P1;SDS_P2;PMS_P1;PMS_P2;Temp;Humidity;BMP_temperature;BMP_pressure;BME280_temperature;BME280_humidity;BME280_pressure;Samples;Min_cycle;Max_cycle;Signal;HPM_P1;HPM_P2
2023/05/28 00:01:46;;;;;;;16.00;9.57;;;;;;;11.15;91.79;102044.19;5052359;28;20056;-73
2023/05/28 00:04:12;;;;;;;17.35;9.15;;;;;;;11.12;91.77;102048.69;5052584;28;20153;-72
2023/05/28 00:06:37;;;;;;;17.00;8.82;;;;;;;11.03;92.19;102039.59;5052762;28;20068;-72
2023/05/28 00:09:02;;;;;;;15.10;8.52;;;;;;;11.01;92.52;102050.88;5052785;28;20032;-74
2023/05/28 00:11:28;;;;;;;14.07;8.93;;;;;;;10.89;93.34;102041.94;5034847;28;20083;-76
2023/05/28 00:13:53;;;;;;;17.83;9.52;;;;;;;10.74;93.75;102025.41;5052312;28;20065;-76
2023/05/28 00:16:19;;;;;;;15.77;9.48;;;;;;;10.71;93.57;102024.69;5052470;28;20065;-72
2023/05/28 00:18:45;;;;;;;15.88;10.07;;;;;;;10.70;94.38;102039.34;5052262;28;20052;-73
2023/05/28 00:21:11;;;;;;;18.25;9.90;;;;;;;10.67;94.40;102030.91;5052364;28;20128;-70
2023/05/28 00:23:36;;;;;;;15.18;9.52;;;;;;;10.59;94.69;102036.41;5052466;28;20542;-71
2023/05/28 00:26:01;;;;;;;16.88;9.63;;;;;;;10.58;94.99;102038.13;5052787;28;20029;-76
2023/05/28 00:28:27;;;;;;;17.13;10.05;;;;;;;10.54;95.76;102036.59;5053450;28;20465;-75
2023/05/28 00:30:52;;;;;;;18.90;10.27;;;;;;;10.47;95.48;102034.34;5053600;28;20052;-78
2023/05/28 00:33:18;;;;;;;14.35;9.38;;;;;;;10.32;95.37;102028.09;5054047;28;20025;-73
2023/05/28 00:35:43;;;;;;;15.50;9.45;;;;;;;10.39;95.55;102050.16;5054297;28;20029;-78
2023/05/28 00:38:08;;;;;;;16.15;10.13;;;;;;;10.37;96.38;102051.16;5054809;28;20427;-75
2023/05/28 00:40:34;;;;;;;18.70;11.02;;;;;;;10.29;96.82;102057.47;5052525;28;20444;-71
2023/05/28 00:43:00;;;;;;;16.35;9.60;;;;;;;10.27;96.74;102050.69;5033778;28;20127;-73
2023/05/28 00:45:25;;;;;;;16.75;10.57;;;;;;;10.29;97.06;102051.47;5052196;28;20491;-73
2023/05/28 00:47:51;;;;;;;17.77;10.75;;;;;;;10.14;97.10;102037.44;5052109;28;20025;-71
2023/05/28 00:50:17;;;;;;;17.90;10.23;;;;;;;10.04;97.05;102026.66;5052195;28;20029;-71
2023/05/28 00:52:46;;;;;;;19.33;10.90;;;;;;;10.20;97.38;102044.91;5052243;28;20021;-71
2023/05/28 00:55:15;;;;;;;18.42;10.85;;;;;;;10.12;97.46;102036.63;5033976;28;20365;-72
2023/05/28 00:57:42;;;;;;;20.52;11.32;;;;;;;10.14;97.59;102037.44;5052197;28;20025;-72
2023/05/28 01:00:08;;;;;;;19.25;11.23;;;;;;;10.07;98.27;102034.25;5051615;28;20024;-73
2023/05/28 01:02:34;;;;;;;16.13;10.35;;;;;;;10.11;98.35;102042.72;5052137;28;20025;-72
2023/05/28 01:04:59;;;;;;;16.27;10.90;;;;;;;10.07;98.23;102042.00;5051892;28;20032;-72
2023/05/28 01:07:25;;;;;;;19.65;11.60;;;;;;;9.95;98.97;102023.63;5052086;28;20025;-77
2023/05/28 01:09:50;;;;;;;21.27;12.10;;;;;;;10.19;99.62;102039.81;5052214;28;20017;-77
2023/05/28 01:12:17;;;;;;;20.40;11.77;;;;;;;10.29;99.35;102041.97;5052143;28;20032;-74
2023/05/28 01:14:42;;;;;;;22.20;12.57;;;;;;;10.33;98.87;102030.63;5052981;28;20463;-73
2023/05/28 01:17:08;;;;;;;18.58;11.40;;;;;;;10.28;98.79;102039.47;5055834;28;20105;-75
2023/05/28 01:19:34;;;;;;;21.50;11.95;;;;;;;10.14;99.07;102016.78;5055702;28;20024;-72
2023/05/28 01:22:04;;;;;;;18.55;11.30;;;;;;;10.25;99.07;102035.28;5055698;28;20092;-73
2023/05/28 01:24:32;;;;;;;26.00;11.68;;;;;;;10.25;98.82;102024.94;5055673;28;20376;-72
2023/05/28 01:26:59;;;;;;;22.92;11.90;;;;;;;10.43;98.77;102023.31;5055492;28;20017;-73
2023/05/28 01:29:24;;;;;;;19.35;11.13;;;;;;;10.57;98.31;102036.47;5054958;28;20035;-72
2023/05/28 01:31:49;;;;;;;17.92;11.60;;;;;;;10.52;98.15;102033.25;5055346;28;20029;-75
2023/05/28 01:34:15;;;;;;;19.17;11.40;;;;;;;10.53;98.25;102032.34;5055478;28;20115;-72
2023/05/28 01:36:48;;;;;;;18.40;11.75;;;;;;;10.46;98.27;102030.94;5055615;28;20028;-72
2023/05/28 01:39:16;;;;;;;20.55;11.35;;;;;;;10.44;98.27;102032.75;5037502;28;20044;-71
2023/05/28 01:41:45;;;;;;;18.08;10.32;;;;;;;10.39;98.36;102029.50;5037247;28;20076;-73
2023/05/28 01:44:12;;;;;;;19.25;11.25;;;;;;;10.39;98.15;102023.50;5054993;28;20075;-73
2023/05/28 01:46:39;;;;;;;19.30;11.05;;;;;;;10.53;97.78;102040.09;5055377;28;20028;-72
2023/05/28 01:49:04;;;;;;;19.50;11.02;;;;;;;10.47;97.61;102032.59;5055066;28;20472;-71
2023/05/28 01:51:31;;;;;;;18.67;11.45;;;;;;;10.47;97.87;102042.94;5055153;28;20036;-72
2023/05/28 01:53:56;;;;;;;19.40;10.85;;;;;;;10.44;98.00;102034.50;5055049;28;20028;-72
2023/05/28 01:56:21;;;;;;;20.90;11.02;;;;;;;10.39;98.04;102029.50;5054841;28;20025;-71
2023/05/28 01:58:47;;;;;;;18.83;10.77;;;;;;;10.33;98.12;102020.31;5054821;28;20373;-71
2023/05/28 02:01:23;;;;;;;15.68;10.40;;;;;;;10.07;98.26;101992.13;5054880;28;20488;-72
2023/05/28 02:03:49;;;;;;;19.58;11.82;;;;;;;10.24;98.11;102025.84;5054815;28;20025;-72
2023/05/28 02:06:14;;;;;;;17.98;10.30;;;;;;;10.05;99.00;102010.28;5054852;28;20017;-72
2023/05/28 02:08:39;;;;;;;20.73;11.35;;;;;;;10.13;98.84;102016.81;5054769;28;20380;-72
2023/05/28 02:11:05;;;;;;;15.68;10.25;;;;;;;9.99;99.18;102007.94;5054377;28;20057;-73
2023/05/28 02:13:31;;;;;;;16.75;10.57;;;;;;;9.91;99.76;102009.97;5054505;28;20376;-71
2023/05/28 02:15:56;;;;;;;15.02;10.00;;;;;;;9.64;99.03;101980.19;5036894;28;20473;-71
2023/05/28 02:18:21;;;;;;;18.27;10.90;;;;;;;9.74;99.66;101990.06;5036077;28;20035;-71
2023/05/28 02:20:47;;;;;;;20.10;10.00;;;;;;;9.80;99.10;102007.00;5054621;28;20033;-72
2023/05/28 02:23:12;;;;;;;19.30;10.70;;;;;;;9.68;99.51;101997.19;5054583;28;20029;-72
2023/05/28 02:25:38;;;;;;;21.05;11.07;;;;;;;9.55;99.55;101989.13;5036156;28;20108;-72
2023/05/28 02:28:03;;;;;;;16.80;10.55;;;;;;;9.58;100.00;102013.94;5054329;28;20057;-72
2023/05/28 02:30:29;;;;;;;19.52;11.40;;;;;;;9.51;100.00;102010.75;5035865;28;20055;-71
2023/05/28 02:32:55;;;;;;;18.95;11.00;;;;;;;9.49;100.00;102015.16;5054132;28;20036;-72
2023/05/28 02:35:21;;;;;;;19.25;9.98;;;;;;;9.50;100.00;102021.97;5054226;28;20116;-72
2023/05/28 02:37:46;;;;;;;19.00;11.52;;;;;;;9.34;100.00;102003.72;5054277;28;20021;-72
2023/05/28 02:40:13;;;;;;;20.23;9.65;;;;;;;9.31;100.00;102003.81;5054068;28;20362;-76
2023/05/28 02:42:39;;;;;;;15.80;10.35;;;;;;;9.28;100.00;101997.94;5054201;28;20080;-72
2023/05/28 02:45:05;;;;;;;17.20;9.43;;;;;;;9.33;100.00;102006.31;5054195;28;20048;-73
2023/05/28 02:47:30;;;;;;;15.68;10.05;;;;;;;9.26;100.00;102005.75;5054178;28;20025;-72
2023/05/28 02:49:55;;;;;;;18.15;10.30;;;;;;;9.09;100.00;101978.03;5053946;28;20379;-74
2023/05/28 02:52:21;;;;;;;15.32;9.32;;;;;;;9.28;100.00;102015.97;5053933;28;20436;-72
2023/05/28 02:54:46;;;;;;;15.32;9.95;;;;;;;9.15;100.00;102016.47;5053920;28;20048;-72
2023/05/28 02:57:12;;;;;;;15.80;9.32;;;;;;;9.05;100.00;102009.97;5053889;28;20025;-73
2023/05/28 02:59:37;;;;;;;15.48;9.75;;;;;;;9.10;100.00;102025.25;5035540;28;20135;-72
2023/05/28 03:02:02;;;;;;;18.50;9.98;;;;;;;9.12;100.00;102034.59;5053500;28;20025;-73
2023/05/28 03:04:28;;;;;;;20.88;11.25;;;;;;;9.16;100.00;102025.03;5053824;28;20021;-74
2023/05/28 03:06:53;;;;;;;17.55;10.32;;;;;;;9.23;100.00;102023.03;5053568;28;20033;-82
2023/05/28 03:09:19;;;;;;;18.73;10.25;;;;;;;9.23;100.00;102020.47;5053692;28;20051;-74
2023/05/28 03:11:44;;;;;;;17.50;9.82;;;;;;;9.21;100.00;102020.53;5053573;28;20464;-72
2023/05/28 03:14:09;;;;;;;16.05;9.43;;;;;;;9.16;100.00;102018.13;5054257;28;20025;-74
2023/05/28 03:16:36;;;;;;;15.10;10.02;;;;;;;8.96;100.00;102000.00;5053299;28;20032;-72
2023/05/28 03:19:01;;;;;;;19.63;10.02;;;;;;;8.95;100.00;102000.91;5053491;28;20036;-72
2023/05/28 03:21:27;;;;;;;17.08;10.13;;;;;;;8.90;100.00;101995.06;5053429;28;20021;-71
2023/05/28 03:23:52;;;;;;;15.75;9.10;;;;;;;9.02;100.00;102025.53;5053599;28;20111;-78
2023/05/28 03:26:17;;;;;;;17.15;10.68;;;;;;;8.98;100.00;102028.28;5053407;28;20037;-72
2023/05/28 03:28:43;;;;;;;19.05;10.15;;;;;;;8.97;100.00;102029.19;5053252;28;20052;-72
2023/05/28 03:31:08;;;;;;;19.63;9.45;;;;;;;8.94;100.00;102022.38;5052936;28;20032;-72
2023/05/28 03:33:33;;;;;;;16.25;9.15;;;;;;;8.94;100.00;102026.72;5053043;28;20041;-72
2023/05/28 03:35:59;;;;;;;17.98;10.20;;;;;;;8.94;100.00;102022.38;5053425;28;20028;-72
2023/05/28 03:38:24;;;;;;;17.02;9.70;;;;;;;8.88;100.00;102017.47;5052762;28;20025;-71
2023/05/28 03:40:49;;;;;;;16.73;9.70;;;;;;;8.96;100.00;102030.09;5053203;28;20033;-72
2023/05/28 03:43:15;;;;;;;16.17;9.77;;;;;;;8.91;100.00;102027.66;5052643;28;20047;-72
2023/05/28 03:45:40;;;;;;;19.95;10.43;;;;;;;8.90;100.00;102016.53;5053012;28;20025;-73
2023/05/28 03:48:06;;;;;;;16.23;9.63;;;;;;;9.04;100.00;102043.50;5052870;28;20045;-73
2023/05/28 03:50:31;;;;;;;16.42;10.32;;;;;;;9.01;100.00;102039.31;5052935;28;20032;-75
2023/05/28 03:52:57;;;;;;;18.20;9.70;;;;;;;8.99;100.00;102035.97;5052595;28;20104;-77
2023/05/28 03:55:22;;;;;;;22.17;10.60;;;;;;;9.00;100.00;102029.91;5052732;28;20469;-82
2023/05/28 03:57:47;;;;;;;17.13;9.90;;;;;;;9.00;100.00;102021.34;5052788;28;20055;-81
2023/05/28 04:00:13;;;;;;;20.00;10.18;;;;;;;9.05;100.00;102017.72;5052830;28;20104;-73
2023/05/28 04:02:39;;;;;;;18.30;10.27;;;;;;;9.22;100.00;102032.50;5052556;28;20404;-82
2023/05/28 04:05:05;;;;;;;17.25;9.88;;;;;;;9.18;100.00;102023.22;5034893;28;20059;-72
2023/05/28 04:07:30;;;;;;;20.10;11.30;;;;;;;9.38;100.00;102040.50;5052718;28;20071;-78
2023/05/28 04:09:56;;;;;;;22.30;10.77;;;;;;;9.46;100.00;102041.06;5052441;28;20025;-81
2023/05/28 04:12:21;;;;;;;19.48;10.43;;;;;;;9.28;100.00;101996.19;5052642;28;20028;-71
2023/05/28 04:14:46;;;;;;;21.48;9.98;;;;;;;9.49;100.00;102021.13;5033833;28;20079;-72
2023/05/28 04:17:12;;;;;;;18.38;9.75;;;;;;;9.61;100.00;102022.38;5052385;28;20200;-74
2023/05/28 04:19:39;;;;;;;22.85;11.10;;;;;;;9.74;100.00;102033.91;5052510;28;20085;-73
2023/05/28 04:22:05;;;;;;;17.90;10.30;;;;;;;9.86;100.00;102035.16;5052386;28;20052;-72
2023/05/28 04:24:30;;;;;;;18.90;10.60;;;;;;;9.92;100.00;102037.47;5052559;28;20025;-72
2023/05/28 04:26:56;;;;;;;20.52;10.48;;;;;;;9.90;100.00;102018.63;5052351;28;20039;-72
2023/05/28 04:29:23;;;;;;;21.83;10.15;;;;;;;10.14;100.00;102042.59;5034431;28;20025;-71
2023/05/28 04:31:49;;;;;;;21.05;10.15;;;;;;;10.10;100.00;102022.13;5052156;28;20021;-72
2023/05/28 04:34:17;;;;;;;19.83;10.90;;;;;;;10.13;100.00;102014.25;5033951;28;20059;-74
2023/05/28 04:36:43;;;;;;;22.27;10.60;;;;;;;10.27;100.00;102030.88;5052377;28;20502;-73
2023/05/28 04:39:09;;;;;;;17.85;10.20;;;;;;;10.40;100.00;102044.09;5052580;28;20025;-72
2023/05/28 04:41:35;;;;;;;20.02;9.80;;;;;;;10.31;100.00;102024.66;5052137;28;20086;-72
2023/05/28 04:44:00;;;;;;;24.60;10.45;;;;;;;10.39;100.00;102029.50;5052389;28;20029;-72
2023/05/28 04:46:29;;;;;;;18.40;10.27;;;;;;;10.55;100.00;102060.69;5052117;28;20029;-73
2023/05/28 04:48:54;;;;;;;21.77;9.70;;;;;;;10.60;100.00;102056.97;5053725;28;20029;-72
2023/05/28 04:51:20;;;;;;;20.83;11.20;;;;;;;10.64;100.00;102055.13;5056348;28;20039;-73
2023/05/28 04:53:46;;;;;;;23.13;10.23;;;;;;;10.70;100.00;102061.75;5056314;28;20035;-72
2023/05/28 04:56:11;;;;;;;21.48;10.32;;;;;;;10.75;100.00;102054.66;5056389;28;20025;-73
2023/05/28 04:58:37;;;;;;;19.95;10.23;;;;;;;10.82;100.00;102054.31;5055921;28;20131;-71
2023/05/28 05:01:02;;;;;;;18.17;10.07;;;;;;;10.89;100.00;102053.13;5056114;28;20041;-72
2023/05/28 05:03:31;;;;;;;24.50;11.00;;;;;;;11.02;100.00;102048.25;5055829;28;20104;-73
2023/05/28 05:05:57;;;;;;;21.08;11.55;;;;;;;11.33;100.00;102044.25;5056107;28;20094;-72
2023/05/28 05:08:22;;;;;;;23.02;10.57;;;;;;;11.65;100.00;102047.91;5055937;28;20052;-73
2023/05/28 05:10:48;;;;;;;19.13;10.45;;;;;;;11.85;100.00;102026.28;5055682;28;20029;-73
2023/05/28 05:13:14;;;;;;;19.95;9.93;;;;;;;12.25;98.55;102044.06;5055652;28;20051;-72
2023/05/28 05:15:39;;;;;;;20.25;9.80;;;;;;;12.54;95.67;102058.13;5055849;28;20524;-72
2023/05/28 05:18:05;;;;;;;18.17;9.90;;;;;;;12.78;94.57;102056.03;5036978;28;20472;-73
2023/05/28 05:20:30;;;;;;;20.85;10.23;;;;;;;13.07;93.61;102059.66;5055525;28;20017;-72
2023/05/28 05:22:56;;;;;;;19.52;10.27;;;;;;;13.34;91.43;102054.75;5036694;28;20045;-73
2023/05/28 05:25:22;;;;;;;16.83;9.75;;;;;;;13.44;90.08;102032.56;5055798;28;20032;-71
2023/05/28 05:27:50;;;;;;;17.13;9.07;;;;;;;13.87;86.94;102057.88;5055458;28;20600;-72
2023/05/28 05:30:16;;;;;;;23.45;9.77;;;;;;;14.05;85.43;102062.81;5055377;28;20111;-72
2023/05/28 05:32:41;;;;;;;19.35;9.57;;;;;;;14.15;85.80;102064.91;5055494;28;20593;-72
2023/05/28 05:35:07;;;;;;;17.13;8.60;;;;;;;14.42;83.98;102075.44;5055661;28;20543;-72
2023/05/28 05:37:32;;;;;;;15.15;8.82;;;;;;;14.55;82.91;102071.19;5038885;28;20024;-71
2023/05/28 05:39:57;;;;;;;18.25;8.98;;;;;;;14.70;81.00;102078.09;5055656;28;20040;-72
2023/05/28 05:42:23;;;;;;;18.88;8.63;;;;;;;14.31;82.46;102076.91;5055972;28;20067;-73
2023/05/28 05:44:48;;;;;;;16.67;8.95;;;;;;;14.04;83.90;102089.72;5057857;28;20029;-72
2023/05/28 05:47:13;;;;;;;18.15;9.05;;;;;;;13.87;85.03;102084.69;5055157;28;20025;-76
2023/05/28 05:49:39;;;;;;;18.27;9.07;;;;;;;13.90;86.85;102081.91;5054774;28;20044;-72
2023/05/28 05:52:05;;;;;;;18.60;10.20;;;;;;;15.05;84.85;102073.34;5055246;28;20032;-71
2023/05/28 05:54:30;;;;;;;19.17;9.02;;;;;;;17.01;75.43;102073.44;5056106;28;20083;-74
2023/05/28 05:56:55;;;;;;;14.63;8.55;;;;;;;18.76;68.59;102075.31;5055750;28;20017;-72
2023/05/28 05:59:21;;;;;;;17.20;7.85;;;;;;;20.26;60.55;102067.47;5055194;28;20029;-75
2023/05/28 06:01:46;;;;;;;16.33;8.75;;;;;;;21.17;57.67;102032.47;5054615;28;20029;-75
2023/05/28 06:04:12;;;;;;;16.63;7.78;;;;;;;22.03;52.47;102066.78;5055105;28;20040;-82
2023/05/28 06:06:38;;;;;;;15.55;7.57;;;;;;;21.06;54.38;102082.50;5036829;28;20021;-74
2023/05/28 06:09:04;;;;;;;16.00;7.85;;;;;;;20.91;55.77;102078.56;5054541;28;20104;-74
2023/05/28 06:11:30;;;;;;;13.27;7.75;;;;;;;21.81;52.31;102072.34;5054702;28;20155;-75
2023/05/28 06:13:55;;;;;;;16.25;7.80;;;;;;;21.80;52.64;102079.41;5054666;28;20032;-74
2023/05/28 06:16:21;;;;;;;20.23;7.60;;;;;;;22.56;51.02;102064.44;5054524;28;20108;-79
2023/05/28 06:18:50;;;;;;;17.58;7.63;;;;;;;23.34;49.47;102080.69;5054449;28;20063;-75
2023/05/28 06:21:15;;;;;;;15.23;7.88;;;;;;;23.82;46.52;102068.13;5054226;28;20090;-75
2023/05/28 06:23:41;;;;;;;15.05;7.70;;;;;;;24.55;45.86;102071.25;5036532;28;20029;-82
2023/05/28 06:26:06;;;;;;;13.18;7.43;;;;;;;25.08;43.68;102062.22;5054390;28;20029;-83
2023/05/28 06:28:31;;;;;;;13.43;7.43;;;;;;;24.09;43.73;102064.50;5054548;28;20025;-82
2023/05/28 06:30:57;;;;;;;14.55;7.85;;;;;;;23.01;46.66;102062.84;5054266;28;20032;-81
2023/05/28 06:33:22;;;;;;;14.75;7.13;;;;;;;22.49;48.45;102066.00;5054343;28;20047;-82
2023/05/28 06:35:48;;;;;;;19.65;7.82;;;;;;;22.30;49.55;102074.78;5036391;28;20053;-81
2023/05/28 06:38:13;;;;;;;14.82;7.32;;;;;;;22.04;50.37;102071.91;5054116;28;20025;-83
2023/05/28 06:40:38;;;;;;;15.15;7.55;;;;;;;22.35;49.00;102047.22;5054141;28;20075;-84
2023/05/28 06:43:04;;;;;;;14.95;7.85;;;;;;;23.24;48.44;102060.66;5052516;28;20037;-84
2023/05/28 06:45:32;;;;;;;16.73;8.23;;;;;;;24.07;46.19;102063.84;5054793;28;20366;-73
2023/05/28 06:47:58;;;;;;;15.70;7.97;;;;;;;23.50;45.72;102064.22;5054300;28;20091;-80
2023/05/28 06:50:23;;;;;;;13.68;7.30;;;;;;;22.74;46.90;102061.88;5054089;28;20025;-84
2023/05/28 06:52:48;;;;;;;16.40;8.57;;;;;;;21.95;49.38;102075.38;5053904;28;20017;-83
2023/05/28 06:55:14;;;;;;;17.13;8.10;;;;;;;21.38;51.99;102073.59;5053943;28;20485;-80
2023/05/28 06:57:40;;;;;;;13.35;8.18;;;;;;;20.78;52.52;102063.06;5053907;28;20064;-82
2023/05/28 07:00:13;;;;;;;15.73;8.57;;;;;;;20.17;54.91;102049.91;5053758;28;20025;-85
2023/05/28 07:02:38;;;;;;;14.07;8.40;;;;;;;19.97;57.30;102061.22;5053828;28;20021;-82
2023/05/28 07:05:04;;;;;;;13.43;8.02;;;;;;;19.79;58.38;102068.00;5053341;28;20078;-81
2023/05/28 07:07:31;;;;;;;18.60;9.50;;;;;;;19.70;58.57;102065.16;5053395;28;20036;-78
2023/05/28 07:09:56;;;;;;;19.73;9.73;;;;;;;19.76;58.93;102071.66;5053604;28;20033;-84
2023/05/28 07:12:21;;;;;;;17.55;8.85;;;;;;;20.28;57.30;102059.47;5052509;28;20385;-76
2023/05/28 07:14:47;;;;;;;15.07;8.50;;;;;;;21.73;54.92;102073.06;5053709;28;20029;-84
2023/05/28 07:17:12;;;;;;;16.35;8.50;;;;;;;22.35;51.76;102069.09;5053595;28;20025;-81
2023/05/28 07:19:37;;;;;;;16.90;8.52;;;;;;;22.86;49.61;102081.81;5053218;28;20033;-78
2023/05/28 07:22:03;;;;;;;14.73;8.80;;;;;;;22.84;48.88;102077.66;5053222;28;20053;-72
2023/05/28 07:24:29;;;;;;;15.65;7.88;;;;;;;22.07;51.29;102081.34;5053228;28;20032;-74
2023/05/28 07:26:54;;;;;;;18.02;9.30;;;;;;;21.46;52.92;102087.72;5035554;28;20021;-75
2023/05/28 07:29:20;;;;;;;17.88;8.93;;;;;;;21.32;52.26;102072.31;5052882;28;20066;-72
2023/05/28 07:31:45;;;;;;;15.63;9.27;;;;;;;21.31;53.79;102098.72;5053324;28;20028;-73
2023/05/28 07:34:10;;;;;;;14.98;8.48;;;;;;;20.53;54.63;102087.09;5053204;28;20430;-75
2023/05/28 07:36:37;;;;;;;17.33;9.45;;;;;;;19.79;57.47;102092.41;5053174;28;20028;-85
2023/05/28 07:39:03;;;;;;;14.75;8.63;;;;;;;19.19;59.05;102093.75;5034391;28;20033;-72
2023/05/28 07:41:29;;;;;;;20.30;8.98;;;;;;;18.54;61.40;102095.28;5053308;28;20392;-79
2023/05/28 07:43:54;;;;;;;17.60;9.30;;;;;;;18.13;63.40;102101.03;5052941;28;20120;-73
2023/05/28 07:46:21;;;;;;;16.77;9.20;;;;;;;17.69;65.16;102078.97;5034714;28;20533;-75
2023/05/28 07:48:48;;;;;;;17.65;9.25;;;;;;;17.60;66.96;102100.53;5053578;28;20025;-72
2023/05/28 07:51:13;;;;;;;18.50;9.07;;;;;;;17.55;67.28;102096.59;5052811;28;20083;-70
2023/05/28 07:53:39;;;;;;;16.80;9.00;;;;;;;17.51;68.26;102095.16;5052913;28;20021;-72
2023/05/28 07:56:05;;;;;;;16.92;8.57;;;;;;;17.54;68.55;102093.16;5052974;28;20074;-73
2023/05/28 07:58:30;;;;;;;16.67;9.65;;;;;;;17.49;69.02;102066.50;5052568;28;20041;-74
2023/05/28 08:00:55;;;;;;;15.93;9.02;;;;;;;17.66;67.89;102079.19;5052704;28;20029;-72
2023/05/28 08:03:23;;;;;;;19.02;9.13;;;;;;;17.68;69.81;102079.91;5052737;28;20484;-83
2023/05/28 08:05:49;;;;;;;15.77;9.23;;;;;;;17.97;69.78;102088.25;5052636;28;20033;-75
2023/05/28 08:08:14;;;;;;;18.90;9.15;;;;;;;18.12;69.36;102080.22;5052841;28;20422;-71
2023/05/28 08:10:39;;;;;;;16.88;9.05;;;;;;;18.44;67.89;102083.00;5052531;28;20515;-73
2023/05/28 08:13:05;;;;;;;16.13;8.65;;;;;;;18.52;68.39;102054.50;5034948;28;20025;-74
2023/05/28 08:15:30;;;;;;;16.42;9.43;;;;;;;18.85;67.15;102083.28;5052637;28;20098;-84
2023/05/28 08:17:55;;;;;;;17.75;8.45;;;;;;;18.99;65.23;102084.84;5052609;28;20079;-74
2023/05/28 08:20:22;;;;;;;14.00;8.32;;;;;;;19.07;64.86;102077.19;5052559;28;20108;-73
2023/05/28 08:22:48;;;;;;;18.83;8.43;;;;;;;19.05;66.25;102060.78;5052205;28;20087;-82
2023/05/28 08:25:13;;;;;;;14.95;7.82;;;;;;;19.09;62.59;102074.47;5052441;28;20033;-72
2023/05/28 08:27:38;;;;;;;14.52;7.63;;;;;;;19.10;62.96;102076.16;5052527;28;20472;-73
2023/05/28 08:30:05;;;;;;;16.35;8.15;;;;;;;19.20;64.71;102075.28;5052445;28;20025;-72
2023/05/28 08:32:30;;;;;;;15.23;7.57;;;;;;;19.20;61.73;102077.91;5052668;28;20132;-84
2023/05/28 08:34:56;;;;;;;14.13;7.93;;;;;;;19.22;60.06;102084.81;5052261;28;20507;-75
2023/05/28 08:37:21;;;;;;;13.43;6.78;;;;;;;19.37;61.82;102075.69;5052405;28;20031;-84
2023/05/28 08:39:46;;;;;;;17.15;7.10;;;;;;;19.41;60.98;102079.75;5052383;28;20419;-74
2023/05/28 08:42:13;;;;;;;18.52;8.23;;;;;;;19.45;61.34;102083.78;5051933;28;20087;-73
2023/05/28 08:44:38;;;;;;;12.48;6.90;;;;;;;19.49;60.25;102072.94;5052264;28;20021;-72
2023/05/28 08:47:04;;;;;;;16.60;6.13;;;;;;;19.61;58.55;102072.94;5052310;28;20025;-78
2023/05/28 08:49:37;;;;;;;14.70;6.80;;;;;;;19.61;57.61;102088.66;5052270;28;20039;-83
2023/05/28 08:52:05;;;;;;;12.68;6.07;;;;;;;19.60;58.11;102079.13;5052016;28;20076;-83
2023/05/28 08:54:31;;;;;;;11.15;6.15;;;;;;;19.66;56.86;102047.16;5052212;28;20017;-74
2023/05/28 08:56:57;;;;;;;11.35;5.10;;;;;;;19.71;54.32;102068.59;5052244;28;20029;-74
2023/05/28 08:59:24;;;;;;;11.75;6.05;;;;;;;19.62;53.10;102069.34;5052606;28;20018;-81
2023/05/28 09:01:51;;;;;;;12.25;5.43;;;;;;;19.62;54.94;102051.84;5052689;28;20384;-75
2023/05/28 09:04:16;;;;;;;14.77;5.25;;;;;;;19.79;55.06;102049.63;5034393;28;20105;-82
2023/05/28 09:06:41;;;;;;;10.35;4.35;;;;;;;20.10;51.19;102051.38;5051903;28;20497;-84
2023/05/28 09:09:11;;;;;;;10.05;4.18;;;;;;;20.10;49.82;102040.03;5034169;28;20388;-75
2023/05/28 09:11:37;;;;;;;11.85;4.07;;;;;;;20.26;49.68;102061.41;5034103;28;20027;-78
2023/05/28 09:14:13;;;;;;;11.93;4.57;;;;;;;20.28;50.45;102036.69;5052091;28;20017;-74
2023/05/28 09:16:42;;;;;;;12.18;4.65;;;;;;;20.74;50.13;102056.38;5052141;28;20020;-74
2023/05/28 09:19:08;;;;;;;10.65;4.60;;;;;;;20.49;47.91;102023.56;5052023;28;20112;-74
2023/05/28 09:21:33;;;;;;;10.82;4.40;;;;;;;20.54;49.58;102031.84;5033305;28;20553;-73
2023/05/28 09:24:00;;;;;;;9.88;4.30;;;;;;;20.70;49.28;102041.06;5051816;28;20021;-73
2023/05/28 09:26:30;;;;;;;10.15;4.00;;;;;;;20.83;47.94;102036.38;5051561;28;20025;-79
2023/05/28 09:28:55;;;;;;;14.73;5.00;;;;;;;20.82;47.37;102032.09;5052219;28;20486;-78
2023/05/28 09:31:28;;;;;;;10.27;4.38;;;;;;;20.78;47.42;102034.16;5051776;28;20037;-82
2023/05/28 09:33:53;;;;;;;10.43;4.35;;;;;;;20.86;46.46;102049.25;5051785;28;20473;-74
2023/05/28 09:36:19;;;;;;;10.18;4.28;;;;;;;20.84;46.63;102048.53;5054090;28;20032;-82
2023/05/28 09:38:45;;;;;;;10.23;4.15;;;;;;;20.88;47.09;102035.03;5055301;28;20028;-74
2023/05/28 09:41:33;;;;;;;9.25;3.90;;;;;;;21.32;49.47;102053.09;5055239;28;20025;-79
2023/05/28 09:44:00;;;;;;;11.40;4.20;;;;;;;21.28;45.37;102012.31;5055141;28;20500;-74
2023/05/28 09:46:31;;;;;;;9.55;4.15;;;;;;;21.59;47.03;102049.78;5055314;28;20032;-80
2023/05/28 09:48:57;;;;;;;10.50;4.47;;;;;;;21.58;45.52;102051.59;5055201;28;20477;-75
2023/05/28 09:51:32;;;;;;;8.80;3.65;;;;;;;21.59;46.59;102050.63;5054845;28;20747;-73
2023/05/28 09:54:03;;;;;;;9.55;4.20;;;;;;;21.45;45.46;102030.03;5055237;28;20047;-80
2023/05/28 09:56:33;;;;;;;10.27;4.50;;;;;;;21.68;45.49;102044.53;5055108;28;20017;-80
2023/05/28 09:59:02;;;;;;;12.05;4.38;;;;;;;21.51;44.23;102026.00;5054952;28;20060;-73
2023/05/28 10:01:40;;;;;;;8.07;4.00;;;;;;;21.75;45.36;102029.88;5054943;28;20041;-75
2023/05/28 10:04:09;;;;;;;10.60;4.10;;;;;;;21.99;44.62;102041.72;5054986;28;20032;-80
2023/05/28 10:06:37;;;;;;;10.07;4.35;;;;;;;21.97;42.86;102038.41;5054865;28;20037;-77
2023/05/28 10:09:04;;;;;;;8.52;3.80;;;;;;;22.09;44.18;102039.94;5054721;28;20108;-84
2023/05/28 10:11:36;;;;;;;9.23;4.13;;;;;;;22.04;42.75;102037.72;5054900;28;20112;-79
2023/05/28 10:14:03;;;;;;;9.50;3.97;;;;;;;22.07;45.03;102039.25;5054969;28;20032;-78
2023/05/28 10:16:29;;;;;;;8.30;3.85;;;;;;;22.19;42.86;102032.84;5054765;28;20391;-75
2023/05/28 10:18:56;;;;;;;11.30;4.05;;;;;;;22.11;42.76;102016.09;5054595;28;20029;-75
2023/05/28 10:21:22;;;;;;;10.82;3.83;;;;;;;22.19;42.49;102048.63;5036487;28;20033;-74
2023/05/28 10:23:48;;;;;;;11.27;4.10;;;;;;;22.09;43.00;102036.47;5054615;28;20131;-76
2023/05/28 10:26:14;;;;;;;10.68;3.90;;;;;;;22.04;42.01;102048.25;5054551;28;20025;-74
2023/05/28 10:28:40;;;;;;;8.52;3.42;;;;;;;22.08;43.32;102030.38;5054541;28;20032;-75
2023/05/28 10:31:10;;;;;;;8.60;4.25;;;;;;;22.15;42.12;102055.16;5054262;28;20036;-75
2023/05/28 10:33:42;;;;;;;10.18;3.88;;;;;;;22.04;41.46;102044.78;5036310;28;20055;-74
2023/05/28 10:36:11;;;;;;;8.35;3.67;;;;;;;21.77;41.77;102013.94;5045715;28;20427;-74
2023/05/28 10:39:00;;;;;;;9.68;3.70;;;;;;;22.05;43.46;102046.44;5035025;28;20469;-71
2023/05/28 10:41:31;;;;;;;11.30;3.75;;;;;;;22.01;42.68;102043.25;5034298;28;20078;-71
2023/05/28 10:44:05;;;;;;;9.90;4.32;;;;;;;21.90;42.83;102045.19;5034220;28;20048;-88
2023/05/28 10:46:37;;;;;;;11.45;3.90;;;;;;;21.81;41.58;102046.03;5033964;28;20532;-86
2023/05/28 10:49:09;;;;;;;10.27;3.80;;;;;;;21.96;41.94;102055.16;5034475;28;20072;-83
2023/05/28 10:51:49;;;;;;;10.25;3.80;;;;;;;22.07;42.47;102056.84;5033211;28;20032;-91
2023/05/28 10:54:16;;;;;;;8.00;3.33;;;;;;;22.15;41.49;102051.72;5034056;28;20088;-88
2023/05/28 10:57:21;;;;;;;10.02;3.30;;;;;;;22.20;42.35;102052.91;5033933;28;20026;-86
2023/05/28 10:59:53;;;;;;;8.63;3.63;;;;;;;21.99;39.82;102047.81;5033900;28;20531;-86
2023/05/28 11:02:24;;;;;;;9.35;3.47;;;;;;;22.13;40.79;102048.41;5034076;28;20028;-87
2023/05/28 11:04:51;;;;;;;13.13;5.88;;;;;;;22.37;40.56;102054.00;5033786;28;20017;-90
2023/05/28 11:07:18;;;;;;;8.43;3.75;;;;;;;22.55;41.45;102040.91;5033358;28;20569;-81
2023/05/28 11:09:48;;;;;;;10.63;3.70;;;;;;;22.66;40.99;102034.63;5052017;28;20079;-86
2023/05/28 11:12:13;;;;;;;10.40;4.00;;;;;;;22.57;41.89;102015.25;5045617;28;20400;-77